sensor_id;sensor_type;location;lat;lon;timestamp;P1;durP1;ratioP1;P2;durP2;ratioP2
47349;SDS011;33088;51.982;5.872;2022-08-01T00:01:04;10.18;;;8.50;;
47349;SDS011;33088;51.982;5.872;2022-08-01T00:03:30;11.32;;;9.10;;
47349;SDS011;33088;51.982;5.872;2022-08-01T00:05:56;15.52;;;9.05;;
47349;SDS011;33088;51.982;5.872;2022-08-01T00:08:22;11.95;;;9.48;;
47349;SDS011;33088;51.982;5.872;2022-08-01T00:10:48;16.52;;;9.40;;
47349;SDS011;33088;51.982;5.872;2022-08-01T00:13:14;14.00;;;9.45;;
47349;SDS011;33088;51.982;5.872;2022-08-01T00:15:39;10.98;;;8.85;;
47349;SDS011;33088;51.982;5.872;2022-08-01T00:18:05;13.38;;;9.05;;
47349;SDS011;33088;51.982;5.872;2022-08-01T00:20:31;14.43;;;8.45;;
47349;SDS011;33088;51.982;5.872;2022-08-01T00:22:56;20.67;;;9.80;;
47349;SDS011;33088;51.982;5.872;2022-08-01T00:25:22;11.75;;;9.65;;
47349;SDS011;33088;51.982;5.872;2022-08-01T00:27:48;11.52;;;9.48;;
47349;SDS011;33088;51.982;5.872;2022-08-01T00:30:13;12.45;;;10.48;;
47349;SDS011;33088;51.982;5.872;2022-08-01T00:32:39;15.63;;;10.80;;
47349;SDS011;33088;51.982;5.872;2022-08-01T00:35:05;11.75;;;9.68;;
47349;SDS011;33088;51.982;5.872;2022-08-01T00:37:32;11.70;;;9.32;;
47349;SDS011;33088;51.982;5.872;2022-08-01T00:39:57;15.45;;;11.10;;
47349;SDS011;33088;51.982;5.872;2022-08-01T00:42:23;12.82;;;10.30;;
47349;SDS011;33088;51.982;5.872;2022-08-01T00:44:48;17.33;;;13.32;;
47349;SDS011;33088;51.982;5.872;2022-08-01T00:47:14;13.57;;;11.40;;
47349;SDS011;33088;51.982;5.872;2022-08-01T00:49:40;15.73;;;12.60;;
47349;SDS011;33088;51.982;5.872;2022-08-01T00:52:06;13.05;;;11.32;;
47349;SDS011;33088;51.982;5.872;2022-08-01T00:54:34;15.60;;;12.40;;
47349;SDS011;33088;51.982;5.872;2022-08-01T00:57:00;14.50;;;11.57;;
47349;SDS011;33088;51.982;5.872;2022-08-01T00:59:27;19.23;;;13.98;;
47349;SDS011;33088;51.982;5.872;2022-08-01T01:01:53;16.23;;;11.82;;
47349;SDS011;33088;51.982;5.872;2022-08-01T01:04:19;15.18;;;12.40;;
47349;SDS011;33088;51.982;5.872;2022-08-01T01:14:54;15.07;;;10.95;;
47349;SDS011;33088;51.982;5.872;2022-08-01T01:17:37;13.43;;;11.10;;
47349;SDS011;33088;51.982;5.872;2022-08-01T01:20:07;12.68;;;10.40;;
47349;SDS011;33088;51.982;5.872;2022-08-01T01:22:42;14.98;;;11.02;;
47349;SDS011;33088;51.982;5.872;2022-08-01T01:30:55;12.95;;;10.82;;
47349;SDS011;33088;51.982;5.872;2022-08-01T01:33:23;14.43;;;10.35;;
47349;SDS011;33088;51.982;5.872;2022-08-01T01:35:56;13.15;;;10.57;;
47349;SDS011;33088;51.982;5.872;2022-08-01T01:38:26;11.68;;;8.55;;
47349;SDS011;33088;51.982;5.872;2022-08-01T01:43:23;13.35;;;9.90;;
47349;SDS011;33088;51.982;5.872;2022-08-01T01:45:49;13.88;;;8.88;;
47349;SDS011;33088;51.982;5.872;2022-08-01T01:48:19;14.02;;;9.77;;
47349;SDS011;33088;51.982;5.872;2022-08-01T01:50:48;12.18;;;8.38;;
47349;SDS011;33088;51.982;5.872;2022-08-01T01:53:17;12.90;;;9.23;;
47349;SDS011;33088;51.982;5.872;2022-08-01T01:55:46;11.85;;;8.77;;
47349;SDS011;33088;51.982;5.872;2022-08-01T01:58:14;11.35;;;9.13;;
47349;SDS011;33088;51.982;5.872;2022-08-01T02:00:42;11.10;;;8.20;;
47349;SDS011;33088;51.982;5.872;2022-08-01T02:03:10;10.77;;;8.70;;
47349;SDS011;33088;51.982;5.872;2022-08-01T02:05:37;13.05;;;8.23;;
47349;SDS011;33088;51.982;5.872;2022-08-01T02:08:04;16.98;;;8.63;;
47349;SDS011;33088;51.982;5.872;2022-08-01T02:10:33;13.38;;;8.57;;
47349;SDS011;33088;51.982;5.872;2022-08-01T02:13:02;10.02;;;7.82;;
47349;SDS011;33088;51.982;5.872;2022-08-01T02:15:29;11.25;;;8.00;;
47349;SDS011;33088;51.982;5.872;2022-08-01T02:17:57;13.77;;;8.80;;
47349;SDS011;33088;51.982;5.872;2022-08-01T02:20:25;12.00;;;7.97;;
47349;SDS011;33088;51.982;5.872;2022-08-01T02:22:56;14.48;;;8.73;;
47349;SDS011;33088;51.982;5.872;2022-08-01T02:25:36;12.98;;;8.20;;
47349;SDS011;33088;51.982;5.872;2022-08-01T02:28:20;14.05;;;8.32;;
47349;SDS011;33088;51.982;5.872;2022-08-01T02:30:53;13.85;;;8.07;;
47349;SDS011;33088;51.982;5.872;2022-08-01T02:33:24;13.98;;;7.80;;
47349;SDS011;33088;51.982;5.872;2022-08-01T02:35:58;11.85;;;7.70;;
47349;SDS011;33088;51.982;5.872;2022-08-01T02:38:28;13.13;;;8.82;;
47349;SDS011;33088;51.982;5.872;2022-08-01T02:40:58;16.30;;;10.18;;
47349;SDS011;33088;51.982;5.872;2022-08-01T02:43:28;13.23;;;8.48;;
47349;SDS011;33088;51.982;5.872;2022-08-01T02:46:01;16.55;;;8.02;;
47349;SDS011;33088;51.982;5.872;2022-08-01T02:48:28;14.88;;;8.38;;
47349;SDS011;33088;51.982;5.872;2022-08-01T02:50:58;15.93;;;8.70;;
47349;SDS011;33088;51.982;5.872;2022-08-01T02:53:26;15.40;;;9.80;;
47349;SDS011;33088;51.982;5.872;2022-08-01T02:55:55;11.75;;;9.05;;
47349;SDS011;33088;51.982;5.872;2022-08-01T02:58:22;12.60;;;8.57;;
47349;SDS011;33088;51.982;5.872;2022-08-01T03:00:49;14.85;;;7.97;;
47349;SDS011;33088;51.982;5.872;2022-08-01T03:03:16;12.70;;;8.70;;
47349;SDS011;33088;51.982;5.872;2022-08-01T03:05:43;16.17;;;9.40;;
47349;SDS011;33088;51.982;5.872;2022-08-01T03:08:10;13.15;;;8.20;;
47349;SDS011;33088;51.982;5.872;2022-08-01T03:10:39;13.52;;;8.30;;
47349;SDS011;33088;51.982;5.872;2022-08-01T03:13:09;15.73;;;8.75;;
47349;SDS011;33088;51.982;5.872;2022-08-01T03:15:38;12.93;;;8.07;;
47349;SDS011;33088;51.982;5.872;2022-08-01T03:18:06;13.50;;;8.70;;
47349;SDS011;33088;51.982;5.872;2022-08-01T03:20:34;11.27;;;8.02;;
47349;SDS011;33088;51.982;5.872;2022-08-01T03:23:07;14.90;;;9.15;;
47349;SDS011;33088;51.982;5.872;2022-08-01T03:25:36;10.85;;;6.75;;
47349;SDS011;33088;51.982;5.872;2022-08-01T03:28:06;12.60;;;7.70;;
47349;SDS011;33088;51.982;5.872;2022-08-01T03:30:33;12.82;;;7.55;;
47349;SDS011;33088;51.982;5.872;2022-08-01T03:33:02;12.82;;;8.50;;
47349;SDS011;33088;51.982;5.872;2022-08-01T03:35:29;11.00;;;7.78;;
47349;SDS011;33088;51.982;5.872;2022-08-01T03:37:58;9.88;;;7.20;;
47349;SDS011;33088;51.982;5.872;2022-08-01T03:40:43;12.88;;;8.38;;
47349;SDS011;33088;51.982;5.872;2022-08-01T03:43:45;12.68;;;7.90;;
47349;SDS011;33088;51.982;5.872;2022-08-01T03:46:17;16.38;;;8.98;;
47349;SDS011;33088;51.982;5.872;2022-08-01T03:48:47;12.82;;;8.18;;
47349;SDS011;33088;51.982;5.872;2022-08-01T03:51:15;12.23;;;7.18;;
47349;SDS011;33088;51.982;5.872;2022-08-01T03:53:42;9.07;;;6.72;;
47349;SDS011;33088;51.982;5.872;2022-08-01T03:56:12;10.05;;;7.32;;
47349;SDS011;33088;51.982;5.872;2022-08-01T03:58:41;8.93;;;6.70;;
47349;SDS011;33088;51.982;5.872;2022-08-01T04:01:08;8.38;;;6.40;;
47349;SDS011;33088;51.982;5.872;2022-08-01T04:03:35;8.50;;;6.78;;
47349;SDS011;33088;51.982;5.872;2022-08-01T04:06:07;7.38;;;6.50;;
47349;SDS011;33088;51.982;5.872;2022-08-01T04:08:38;8.65;;;6.97;;
47349;SDS011;33088;51.982;5.872;2022-08-01T04:11:05;9.90;;;7.30;;
47349;SDS011;33088;51.982;5.872;2022-08-01T04:13:32;11.55;;;8.05;;
47349;SDS011;33088;51.982;5.872;2022-08-01T04:15:58;11.15;;;7.75;;
47349;SDS011;33088;51.982;5.872;2022-08-01T04:18:24;14.48;;;8.55;;
47349;SDS011;33088;51.982;5.872;2022-08-01T04:20:50;10.15;;;6.78;;
47349;SDS011;33088;51.982;5.872;2022-08-01T04:23:17;13.05;;;8.25;;
47349;SDS011;33088;51.982;5.872;2022-08-01T04:25:47;10.25;;;7.40;;
47349;SDS011;33088;51.982;5.872;2022-08-01T04:28:15;11.52;;;8.68;;
47349;SDS011;33088;51.982;5.872;2022-08-01T04:30:42;14.93;;;8.98;;
47349;SDS011;33088;51.982;5.872;2022-08-01T04:33:11;11.95;;;8.10;;
47349;SDS011;33088;51.982;5.872;2022-08-01T04:35:41;11.18;;;8.88;;
47349;SDS011;33088;51.982;5.872;2022-08-01T04:38:10;12.15;;;8.52;;
47349;SDS011;33088;51.982;5.872;2022-08-01T04:40:38;9.80;;;7.97;;
47349;SDS011;33088;51.982;5.872;2022-08-01T04:43:06;9.43;;;7.82;;
47349;SDS011;33088;51.982;5.872;2022-08-01T04:45:32;12.35;;;9.60;;
47349;SDS011;33088;51.982;5.872;2022-08-01T04:48:00;12.73;;;9.35;;
47349;SDS011;33088;51.982;5.872;2022-08-01T04:50:26;12.18;;;9.18;;
47349;SDS011;33088;51.982;5.872;2022-08-01T04:52:53;12.75;;;9.30;;
47349;SDS011;33088;51.982;5.872;2022-08-01T04:55:18;13.55;;;9.70;;
47349;SDS011;33088;51.982;5.872;2022-08-01T04:57:45;12.75;;;9.75;;
47349;SDS011;33088;51.982;5.872;2022-08-01T05:00:12;11.25;;;8.70;;
47349;SDS011;33088;51.982;5.872;2022-08-01T05:02:41;10.70;;;8.73;;
47349;SDS011;33088;51.982;5.872;2022-08-01T05:05:07;7.22;;;6.53;;
47349;SDS011;33088;51.982;5.872;2022-08-01T05:07:33;13.48;;;8.00;;
47349;SDS011;33088;51.982;5.872;2022-08-01T05:10:02;9.48;;;8.05;;
47349;SDS011;33088;51.982;5.872;2022-08-01T05:12:29;11.25;;;9.38;;
47349;SDS011;33088;51.982;5.872;2022-08-01T05:14:54;10.18;;;7.22;;
47349;SDS011;33088;51.982;5.872;2022-08-01T05:17:20;10.60;;;8.45;;
47349;SDS011;33088;51.982;5.872;2022-08-01T05:19:46;10.25;;;8.02;;
47349;SDS011;33088;51.982;5.872;2022-08-01T05:22:12;9.18;;;7.22;;
47349;SDS011;33088;51.982;5.872;2022-08-01T05:24:38;8.48;;;6.40;;
47349;SDS011;33088;51.982;5.872;2022-08-01T05:27:05;8.82;;;7.75;;
47349;SDS011;33088;51.982;5.872;2022-08-01T05:29:33;10.52;;;7.38;;
47349;SDS011;33088;51.982;5.872;2022-08-01T05:32:02;9.10;;;6.72;;
47349;SDS011;33088;51.982;5.872;2022-08-01T05:34:28;9.57;;;8.10;;
47349;SDS011;33088;51.982;5.872;2022-08-01T05:36:54;9.27;;;7.38;;
47349;SDS011;33088;51.982;5.872;2022-08-01T05:39:19;9.38;;;7.38;;
47349;SDS011;33088;51.982;5.872;2022-08-01T05:41:45;9.73;;;6.97;;
47349;SDS011;33088;51.982;5.872;2022-08-01T05:44:11;8.63;;;7.25;;
47349;SDS011;33088;51.982;5.872;2022-08-01T05:46:37;7.95;;;7.13;;
47349;SDS011;33088;51.982;5.872;2022-08-01T05:49:03;7.13;;;6.20;;
47349;SDS011;33088;51.982;5.872;2022-08-01T05:51:29;8.40;;;6.22;;
47349;SDS011;33088;51.982;5.872;2022-08-01T05:53:56;10.38;;;6.65;;
47349;SDS011;33088;51.982;5.872;2022-08-01T05:56:22;10.30;;;5.38;;
47349;SDS011;33088;51.982;5.872;2022-08-01T05:58:48;6.53;;;4.90;;
47349;SDS011;33088;51.982;5.872;2022-08-01T06:01:15;8.23;;;4.18;;
47349;SDS011;33088;51.982;5.872;2022-08-01T06:03:41;8.88;;;4.47;;
47349;SDS011;33088;51.982;5.872;2022-08-01T06:06:07;5.72;;;4.70;;
47349;SDS011;33088;51.982;5.872;2022-08-01T06:08:32;4.80;;;3.10;;
47349;SDS011;33088;51.982;5.872;2022-08-01T06:11:01;3.13;;;2.85;;
47349;SDS011;33088;51.982;5.872;2022-08-01T06:13:27;3.55;;;2.50;;
47349;SDS011;33088;51.982;5.872;2022-08-01T06:15:52;2.72;;;2.15;;
47349;SDS011;33088;51.982;5.872;2022-08-01T06:18:19;2.80;;;2.40;;
47349;SDS011;33088;51.982;5.872;2022-08-01T06:20:44;4.13;;;2.40;;
47349;SDS011;33088;51.982;5.872;2022-08-01T06:23:10;2.05;;;1.80;;
47349;SDS011;33088;51.982;5.872;2022-08-01T06:25:36;1.98;;;1.88;;
47349;SDS011;33088;51.982;5.872;2022-08-01T06:28:02;4.78;;;1.90;;
47349;SDS011;33088;51.982;5.872;2022-08-01T06:30:28;1.77;;;1.67;;
47349;SDS011;33088;51.982;5.872;2022-08-01T06:32:54;1.80;;;1.65;;
47349;SDS011;33088;51.982;5.872;2022-08-01T06:35:23;2.00;;;1.80;;
47349;SDS011;33088;51.982;5.872;2022-08-01T06:37:49;1.67;;;1.58;;
47349;SDS011;33088;51.982;5.872;2022-08-01T06:40:15;1.35;;;1.25;;
47349;SDS011;33088;51.982;5.872;2022-08-01T06:42:41;2.75;;;1.20;;
47349;SDS011;33088;51.982;5.872;2022-08-01T06:45:08;1.40;;;1.30;;
47349;SDS011;33088;51.982;5.872;2022-08-01T06:47:35;4.32;;;1.30;;
47349;SDS011;33088;51.982;5.872;2022-08-01T06:50:05;3.78;;;1.50;;
47349;SDS011;33088;51.982;5.872;2022-08-01T06:52:31;2.40;;;1.65;;
47349;SDS011;33088;51.982;5.872;2022-08-01T06:54:57;1.70;;;1.50;;
47349;SDS011;33088;51.982;5.872;2022-08-01T06:57:23;3.05;;;1.75;;
47349;SDS011;33088;51.982;5.872;2022-08-01T06:59:49;1.55;;;1.45;;
47349;SDS011;33088;51.982;5.872;2022-08-01T07:02:14;2.60;;;1.40;;
47349;SDS011;33088;51.982;5.872;2022-08-01T07:04:40;2.42;;;1.55;;
47349;SDS011;33088;51.982;5.872;2022-08-01T07:07:06;1.48;;;1.38;;
47349;SDS011;33088;51.982;5.872;2022-08-01T07:09:32;1.38;;;1.25;;
47349;SDS011;33088;51.982;5.872;2022-08-01T07:11:57;2.85;;;1.70;;
47349;SDS011;33088;51.982;5.872;2022-08-01T07:14:23;1.25;;;1.15;;
47349;SDS011;33088;51.982;5.872;2022-08-01T07:16:49;2.67;;;1.42;;
47349;SDS011;33088;51.982;5.872;2022-08-01T07:19:15;2.83;;;1.60;;
47349;SDS011;33088;51.982;5.872;2022-08-01T07:21:41;1.20;;;1.10;;
47349;SDS011;33088;51.982;5.872;2022-08-01T07:24:08;1.02;;;1.02;;
47349;SDS011;33088;51.982;5.872;2022-08-01T07:26:35;3.67;;;1.60;;
47349;SDS011;33088;51.982;5.872;2022-08-01T07:29:01;2.28;;;1.35;;
47349;SDS011;33088;51.982;5.872;2022-08-01T07:31:27;3.22;;;1.30;;
47349;SDS011;33088;51.982;5.872;2022-08-01T07:33:54;1.27;;;1.17;;
47349;SDS011;33088;51.982;5.872;2022-08-01T07:36:19;1.55;;;1.45;;
47349;SDS011;33088;51.982;5.872;2022-08-01T07:38:45;1.00;;;1.00;;
47349;SDS011;33088;51.982;5.872;2022-08-01T07:41:11;2.40;;;1.00;;
47349;SDS011;33088;51.982;5.872;2022-08-01T07:43:37;1.45;;;1.35;;
47349;SDS011;33088;51.982;5.872;2022-08-01T07:46:03;2.60;;;1.48;;
47349;SDS011;33088;51.982;5.872;2022-08-01T07:48:29;3.85;;;1.73;;
47349;SDS011;33088;51.982;5.872;2022-08-01T07:50:55;2.40;;;1.30;;
47349;SDS011;33088;51.982;5.872;2022-08-01T07:53:21;4.40;;;2.00;;
47349;SDS011;33088;51.982;5.872;2022-08-01T07:55:47;2.30;;;1.70;;
47349;SDS011;33088;51.982;5.872;2022-08-01T07:58:14;3.70;;;1.70;;
47349;SDS011;33088;51.982;5.872;2022-08-01T08:00:40;3.35;;;1.92;;
47349;SDS011;33088;51.982;5.872;2022-08-01T08:03:06;2.50;;;2.03;;
47349;SDS011;33088;51.982;5.872;2022-08-01T08:05:32;2.28;;;1.50;;
47349;SDS011;33088;51.982;5.872;2022-08-01T08:08:02;3.95;;;1.90;;
47349;SDS011;33088;51.982;5.872;2022-08-01T08:10:31;2.03;;;1.58;;
47349;SDS011;33088;51.982;5.872;2022-08-01T08:12:57;2.05;;;1.52;;
47349;SDS011;33088;51.982;5.872;2022-08-01T08:15:22;1.73;;;1.60;;
47349;SDS011;33088;51.982;5.872;2022-08-01T08:17:52;3.00;;;1.48;;
47349;SDS011;33088;51.982;5.872;2022-08-01T08:20:17;4.30;;;2.00;;
47349;SDS011;33088;51.982;5.872;2022-08-01T08:22:43;3.05;;;1.92;;
47349;SDS011;33088;51.982;5.872;2022-08-01T08:25:09;3.60;;;1.50;;
47349;SDS011;33088;51.982;5.872;2022-08-01T08:27:35;1.50;;;1.40;;
47349;SDS011;33088;51.982;5.872;2022-08-01T08:30:02;2.38;;;1.75;;
47349;SDS011;33088;51.982;5.872;2022-08-01T08:32:30;3.42;;;1.77;;
47349;SDS011;33088;51.982;5.872;2022-08-01T08:34:55;3.10;;;1.60;;
47349;SDS011;33088;51.982;5.872;2022-08-01T08:37:22;6.35;;;3.00;;
47349;SDS011;33088;51.982;5.872;2022-08-01T08:39:47;2.72;;;1.50;;
47349;SDS011;33088;51.982;5.872;2022-08-01T08:42:13;4.50;;;1.90;;
47349;SDS011;33088;51.982;5.872;2022-08-01T08:44:42;2.67;;;1.77;;
47349;SDS011;33088;51.982;5.872;2022-08-01T08:47:08;1.90;;;1.80;;
47349;SDS011;33088;51.982;5.872;2022-08-01T08:49:36;3.85;;;2.05;;
47349;SDS011;33088;51.982;5.872;2022-08-01T08:52:04;1.92;;;1.50;;
47349;SDS011;33088;51.982;5.872;2022-08-01T08:54:30;2.28;;;1.40;;
47349;SDS011;33088;51.982;5.872;2022-08-01T08:56:58;1.98;;;1.70;;
47349;SDS011;33088;51.982;5.872;2022-08-01T08:59:25;1.58;;;1.20;;
47349;SDS011;33088;51.982;5.872;2022-08-01T09:01:51;1.77;;;1.30;;
47349;SDS011;33088;51.982;5.872;2022-08-01T09:04:17;2.42;;;1.83;;
47349;SDS011;33088;51.982;5.872;2022-08-01T09:06:46;4.05;;;1.67;;
47349;SDS011;33088;51.982;5.872;2022-08-01T09:09:11;1.98;;;1.50;;
47349;SDS011;33088;51.982;5.872;2022-08-01T09:11:37;2.88;;;1.55;;
47349;SDS011;33088;51.982;5.872;2022-08-01T09:14:04;2.42;;;1.90;;
47349;SDS011;33088;51.982;5.872;2022-08-01T09:16:37;4.78;;;2.08;;
47349;SDS011;33088;51.982;5.872;2022-08-01T09:19:10;4.30;;;2.13;;
47349;SDS011;33088;51.982;5.872;2022-08-01T09:24:26;4.10;;;2.20;;
47349;SDS011;33088;51.982;5.872;2022-08-01T09:26:54;5.30;;;3.17;;
47349;SDS011;33088;51.982;5.872;2022-08-01T09:29:21;3.72;;;2.70;;
47349;SDS011;33088;51.982;5.872;2022-08-01T09:31:48;3.95;;;3.33;;
47349;SDS011;33088;51.982;5.872;2022-08-01T09:34:15;7.47;;;3.78;;
47349;SDS011;33088;51.982;5.872;2022-08-01T09:36:49;5.43;;;2.63;;
47349;SDS011;33088;51.982;5.872;2022-08-01T09:39:17;6.07;;;2.83;;
47349;SDS011;33088;51.982;5.872;2022-08-01T09:41:45;6.15;;;3.20;;
47349;SDS011;33088;51.982;5.872;2022-08-01T09:44:12;4.32;;;3.08;;
47349;SDS011;33088;51.982;5.872;2022-08-01T09:46:48;7.05;;;4.22;;
47349;SDS011;33088;51.982;5.872;2022-08-01T09:49:13;6.90;;;4.50;;
47349;SDS011;33088;51.982;5.872;2022-08-01T09:51:39;7.68;;;4.63;;
47349;SDS011;33088;51.982;5.872;2022-08-01T09:54:06;8.77;;;4.32;;
47349;SDS011;33088;51.982;5.872;2022-08-01T09:56:40;8.75;;;4.57;;
47349;SDS011;33088;51.982;5.872;2022-08-01T09:59:07;6.70;;;4.80;;
47349;SDS011;33088;51.982;5.872;2022-08-01T10:01:45;7.38;;;4.88;;
47349;SDS011;33088;51.982;5.872;2022-08-01T10:04:13;8.38;;;5.22;;
47349;SDS011;33088;51.982;5.872;2022-08-01T10:06:41;8.10;;;5.00;;
47349;SDS011;33088;51.982;5.872;2022-08-01T10:09:09;8.32;;;5.03;;
47349;SDS011;33088;51.982;5.872;2022-08-01T10:11:36;11.13;;;4.57;;
47349;SDS011;33088;51.982;5.872;2022-08-01T10:14:06;8.75;;;4.68;;
47349;SDS011;33088;51.982;5.872;2022-08-01T10:16:33;7.35;;;3.55;;
47349;SDS011;33088;51.982;5.872;2022-08-01T10:19:05;10.02;;;4.30;;
47349;SDS011;33088;51.982;5.872;2022-08-01T10:21:33;12.52;;;5.82;;
47349;SDS011;33088;51.982;5.872;2022-08-01T10:24:02;10.48;;;4.30;;
47349;SDS011;33088;51.982;5.872;2022-08-01T10:26:29;13.57;;;5.55;;
47349;SDS011;33088;51.982;5.872;2022-08-01T10:28:58;8.50;;;4.22;;
47349;SDS011;33088;51.982;5.872;2022-08-01T10:31:24;14.98;;;4.30;;
47349;SDS011;33088;51.982;5.872;2022-08-01T10:33:50;9.85;;;4.20;;
47349;SDS011;33088;51.982;5.872;2022-08-01T10:36:18;12.80;;;3.80;;
47349;SDS011;33088;51.982;5.872;2022-08-01T10:38:45;8.75;;;3.80;;
47349;SDS011;33088;51.982;5.872;2022-08-01T10:41:12;5.28;;;3.28;;
47349;SDS011;33088;51.982;5.872;2022-08-01T10:43:40;10.10;;;4.47;;
47349;SDS011;33088;51.982;5.872;2022-08-01T10:46:07;8.60;;;2.83;;
47349;SDS011;33088;51.982;5.872;2022-08-01T10:51:02;13.70;;;4.22;;
47349;SDS011;33088;51.982;5.872;2022-08-01T10:53:30;5.97;;;2.97;;
47349;SDS011;33088;51.982;5.872;2022-08-01T10:58:28;4.57;;;3.05;;
47349;SDS011;33088;51.982;5.872;2022-08-01T11:03:44;7.65;;;2.90;;
47349;SDS011;33088;51.982;5.872;2022-08-01T11:06:26;12.15;;;4.43;;
47349;SDS011;33088;51.982;5.872;2022-08-01T11:09:15;6.72;;;3.17;;
47349;SDS011;33088;51.982;5.872;2022-08-01T11:12:03;4.47;;;2.33;;
47349;SDS011;33088;51.982;5.872;2022-08-01T11:14:34;9.27;;;3.42;;
47349;SDS011;33088;51.982;5.872;2022-08-01T11:20:43;11.15;;;3.55;;
47349;SDS011;33088;51.982;5.872;2022-08-01T11:25:26;10.20;;;2.78;;
47349;SDS011;33088;51.982;5.872;2022-08-01T11:30:42;3.17;;;2.08;;
47349;SDS011;33088;51.982;5.872;2022-08-01T11:33:09;7.47;;;2.53;;
47349;SDS011;33088;51.982;5.872;2022-08-01T11:35:36;4.68;;;2.15;;
47349;SDS011;33088;51.982;5.872;2022-08-01T11:38:22;12.93;;;2.63;;
47349;SDS011;33088;51.982;5.872;2022-08-01T11:41:09;3.92;;;2.53;;
47349;SDS011;33088;51.982;5.872;2022-08-01T11:43:55;6.38;;;2.53;;
47349;SDS011;33088;51.982;5.872;2022-08-01T11:52:10;12.43;;;2.72;;
47349;SDS011;33088;51.982;5.872;2022-08-01T11:55:18;7.40;;;2.78;;
47349;SDS011;33088;51.982;5.872;2022-08-01T11:57:32;5.90;;;2.45;;
47349;SDS011;33088;51.982;5.872;2022-08-01T12:00:00;5.53;;;2.20;;
47349;SDS011;33088;51.982;5.872;2022-08-01T12:02:39;3.92;;;2.05;;
47349;SDS011;33088;51.982;5.872;2022-08-01T12:05:07;5.07;;;2.53;;
47349;SDS011;33088;51.982;5.872;2022-08-01T12:07:47;7.05;;;2.10;;
47349;SDS011;33088;51.982;5.872;2022-08-01T12:10:16;5.93;;;2.10;;
47349;SDS011;33088;51.982;5.872;2022-08-01T12:12:44;9.20;;;2.78;;
47349;SDS011;33088;51.982;5.872;2022-08-01T12:15:12;5.75;;;2.50;;
47349;SDS011;33088;51.982;5.872;2022-08-01T12:17:39;5.10;;;1.90;;
47349;SDS011;33088;51.982;5.872;2022-08-01T12:20:12;7.65;;;2.45;;
47349;SDS011;33088;51.982;5.872;2022-08-01T12:22:39;9.75;;;2.90;;
47349;SDS011;33088;51.982;5.872;2022-08-01T12:25:15;11.43;;;2.08;;
47349;SDS011;33088;51.982;5.872;2022-08-01T12:27:43;5.15;;;1.92;;
47349;SDS011;33088;51.982;5.872;2022-08-01T12:30:11;4.20;;;1.77;;
47349;SDS011;33088;51.982;5.872;2022-08-01T12:32:39;6.03;;;2.70;;
47349;SDS011;33088;51.982;5.872;2022-08-01T12:37:38;7.35;;;2.38;;
47349;SDS011;33088;51.982;5.872;2022-08-01T12:40:30;4.40;;;1.77;;
47349;SDS011;33088;51.982;5.872;2022-08-01T12:43:00;6.07;;;2.00;;
47349;SDS011;33088;51.982;5.872;2022-08-01T12:47:56;9.65;;;2.45;;
47349;SDS011;33088;51.982;5.872;2022-08-01T12:50:25;4.18;;;1.60;;
47349;SDS011;33088;51.982;5.872;2022-08-01T12:52:55;9.07;;;2.97;;
47349;SDS011;33088;51.982;5.872;2022-08-01T12:55:22;3.47;;;2.00;;
47349;SDS011;33088;51.982;5.872;2022-08-01T12:58:05;6.50;;;2.00;;
47349;SDS011;33088;51.982;5.872;2022-08-01T13:00:32;8.35;;;2.28;;
47349;SDS011;33088;51.982;5.872;2022-08-01T13:03:00;8.05;;;2.33;;
47349;SDS011;33088;51.982;5.872;2022-08-01T13:05:43;6.80;;;2.47;;
47349;SDS011;33088;51.982;5.872;2022-08-01T13:08:12;9.10;;;1.88;;
47349;SDS011;33088;51.982;5.872;2022-08-01T13:10:39;6.00;;;1.70;;
47349;SDS011;33088;51.982;5.872;2022-08-01T13:13:06;3.30;;;1.92;;
47349;SDS011;33088;51.982;5.872;2022-08-01T13:15:33;4.15;;;1.55;;
47349;SDS011;33088;51.982;5.872;2022-08-01T13:18:02;5.32;;;1.70;;
47349;SDS011;33088;51.982;5.872;2022-08-01T13:20:47;4.75;;;1.95;;
47349;SDS011;33088;51.982;5.872;2022-08-01T13:23:16;4.15;;;1.50;;
47349;SDS011;33088;51.982;5.872;2022-08-01T13:25:51;5.15;;;2.08;;
47349;SDS011;33088;51.982;5.872;2022-08-01T13:28:19;7.38;;;2.00;;
47349;SDS011;33088;51.982;5.872;2022-08-01T13:30:53;6.82;;;1.70;;
47349;SDS011;33088;51.982;5.872;2022-08-01T13:33:24;3.72;;;1.55;;
47349;SDS011;33088;51.982;5.872;2022-08-01T13:35:53;5.05;;;1.92;;
47349;SDS011;33088;51.982;5.872;2022-08-01T13:38:20;6.13;;;2.28;;
47349;SDS011;33088;51.982;5.872;2022-08-01T13:41:06;7.55;;;2.13;;
47349;SDS011;33088;51.982;5.872;2022-08-01T13:43:32;6.50;;;2.45;;
47349;SDS011;33088;51.982;5.872;2022-08-01T13:46:00;7.95;;;2.45;;
47349;SDS011;33088;51.982;5.872;2022-08-01T13:48:27;5.72;;;1.80;;
47349;SDS011;33088;51.982;5.872;2022-08-01T13:50:54;6.68;;;2.03;;
47349;SDS011;33088;51.982;5.872;2022-08-01T13:53:19;3.88;;;1.77;;
47349;SDS011;33088;51.982;5.872;2022-08-01T13:55:45;4.90;;;1.88;;
47349;SDS011;33088;51.982;5.872;2022-08-01T13:58:11;6.40;;;1.85;;
47349;SDS011;33088;51.982;5.872;2022-08-01T14:00:36;7.85;;;2.03;;
47349;SDS011;33088;51.982;5.872;2022-08-01T14:03:02;6.45;;;2.53;;
47349;SDS011;33088;51.982;5.872;2022-08-01T14:05:28;5.90;;;1.80;;
47349;SDS011;33088;51.982;5.872;2022-08-01T14:07:55;3.78;;;2.10;;
47349;SDS011;33088;51.982;5.872;2022-08-01T14:10:20;6.95;;;1.80;;
47349;SDS011;33088;51.982;5.872;2022-08-01T14:12:49;4.32;;;1.88;;
47349;SDS011;33088;51.982;5.872;2022-08-01T14:15:15;6.75;;;3.17;;
47349;SDS011;33088;51.982;5.872;2022-08-01T14:17:41;5.32;;;1.70;;
47349;SDS011;33088;51.982;5.872;2022-08-01T14:20:07;6.05;;;1.90;;
47349;SDS011;33088;51.982;5.872;2022-08-01T14:22:33;7.40;;;1.50;;
47349;SDS011;33088;51.982;5.872;2022-08-01T14:24:59;4.90;;;1.58;;
47349;SDS011;33088;51.982;5.872;2022-08-01T14:27:24;4.30;;;1.45;;
47349;SDS011;33088;51.982;5.872;2022-08-01T14:29:50;4.90;;;1.73;;
47349;SDS011;33088;51.982;5.872;2022-08-01T14:32:16;5.35;;;1.80;;
47349;SDS011;33088;51.982;5.872;2022-08-01T14:34:42;4.60;;;1.80;;
47349;SDS011;33088;51.982;5.872;2022-08-01T14:37:07;2.72;;;1.20;;
47349;SDS011;33088;51.982;5.872;2022-08-01T14:39:33;2.70;;;1.30;;
47349;SDS011;33088;51.982;5.872;2022-08-01T14:41:59;2.03;;;1.17;;
47349;SDS011;33088;51.982;5.872;2022-08-01T14:44:24;3.03;;;1.40;;
47349;SDS011;33088;51.982;5.872;2022-08-01T14:46:50;4.68;;;1.40;;
47349;SDS011;33088;51.982;5.872;2022-08-01T14:49:16;4.50;;;1.30;;
47349;SDS011;33088;51.982;5.872;2022-08-01T14:51:41;1.98;;;1.10;;
47349;SDS011;33088;51.982;5.872;2022-08-01T14:54:07;3.53;;;1.40;;
47349;SDS011;33088;51.982;5.872;2022-08-01T14:56:33;2.90;;;1.58;;
47349;SDS011;33088;51.982;5.872;2022-08-01T14:58:59;1.88;;;1.20;;
47349;SDS011;33088;51.982;5.872;2022-08-01T15:01:24;4.00;;;1.80;;
47349;SDS011;33088;51.982;5.872;2022-08-01T15:03:50;6.75;;;1.80;;
47349;SDS011;33088;51.982;5.872;2022-08-01T15:06:16;3.22;;;1.77;;
47349;SDS011;33088;51.982;5.872;2022-08-01T15:08:42;3.00;;;1.40;;
47349;SDS011;33088;51.982;5.872;2022-08-01T15:11:08;4.47;;;1.67;;
47349;SDS011;33088;51.982;5.872;2022-08-01T15:13:34;2.17;;;1.50;;
47349;SDS011;33088;51.982;5.872;2022-08-01T15:16:00;3.35;;;1.42;;
47349;SDS011;33088;51.982;5.872;2022-08-01T15:18:26;4.32;;;1.65;;
47349;SDS011;33088;51.982;5.872;2022-08-01T15:20:52;2.72;;;1.50;;
47349;SDS011;33088;51.982;5.872;2022-08-01T15:23:18;6.20;;;1.38;;
47349;SDS011;33088;51.982;5.872;2022-08-01T15:25:44;4.43;;;1.65;;
47349;SDS011;33088;51.982;5.872;2022-08-01T15:28:10;5.35;;;1.75;;
47349;SDS011;33088;51.982;5.872;2022-08-01T15:30:35;4.45;;;1.48;;
47349;SDS011;33088;51.982;5.872;2022-08-01T15:33:02;2.72;;;1.48;;
47349;SDS011;33088;51.982;5.872;2022-08-01T15:35:28;3.42;;;1.50;;